Afton, Virginia
Current Conditions -  °F | °C
As of 5:35 AM on Wednesday 22 Oct 2014 (Local Time) from KW13 Reporting Station
Overcast Overcast  
Wind Chill: 47°   Ceiling: 4300
Heat Index: 49°   Visibility: 10mi
Dew Point: 40°   Wind: 6mph
Humidity: 71%   Direction: 330°NNW
Pressure: 29.94"   Gusts: NA
Location:  38°N, 78.78°W
Report Text: KW13 220935Z AUTO 33005KT 10SM OVC043 10/05 A2994 RMK AO1 T00950045
Loading
Personal Weather Stations






























Interactive Weather Map
Tropical Storm Tracking
New forecast layout! Learn more

10-Day Weather Forecast

Advertisements
Track Severe Weather on mobile